Terminal Aerodrome Forecast
Issued by NWS

Home | Current Version | Previous Version | Text Only | Print | Product List | Glossary On
Versions: 1 2 3 4 5 6 7 8 9 10 11 12 13 14 15 16 17 18 19
000
FTUS43 KEAX 032300
TAFMKC
TAF
KMKC 032340Z 0400/0424 VRB03KT P6SM BKN150
     FM040400 16009KT P6SM VCTS SCT050CB BKN120
      TEMPO 0410/0414 3SM TSRA BKN030CB
     FM041600 17007KT P6SM BKN150=

USA.gov is the U.S. government's official web portal to all federal, state and local government web resources and services.